sensor_id;sensor_type;location;lat;lon;timestamp;pressure;altitude;pressure_sealevel;temperature;humidity
59513;BME280;45330;51.634;5.562;2024-01-30T00:01:02;102578.75;;;5.81;100.00
59513;BME280;45330;51.634;5.562;2024-01-30T00:03:27;102570.28;;;5.85;100.00
59513;BME280;45330;51.634;5.562;2024-01-30T00:05:54;102570.78;;;5.76;100.00
59513;BME280;45330;51.634;5.562;2024-01-30T00:08:20;102575.88;;;5.75;100.00
59513;BME280;45330;51.634;5.562;2024-01-30T00:10:45;102578.34;;;5.72;100.00
59513;BME280;45330;51.634;5.562;2024-01-30T00:13:10;102563.97;;;5.57;100.00
59513;BME280;45330;51.634;5.562;2024-01-30T00:15:36;102572.66;;;5.59;100.00
59513;BME280;45330;51.634;5.562;2024-01-30T00:18:01;102569.81;;;5.53;100.00
59513;BME280;45330;51.634;5.562;2024-01-30T00:20:26;102574.19;;;5.54;100.00
59513;BME280;45330;51.634;5.562;2024-01-30T00:22:52;102570.50;;;5.49;100.00
59513;BME280;45330;51.634;5.562;2024-01-30T00:25:17;102573.91;;;5.48;100.00
59513;BME280;45330;51.634;5.562;2024-01-30T00:27:43;102557.88;;;5.36;100.00
59513;BME280;45330;51.634;5.562;2024-01-30T00:30:09;102552.59;;;5.32;100.00
59513;BME280;45330;51.634;5.562;2024-01-30T00:32:34;102551.03;;;5.36;100.00
59513;BME280;45330;51.634;5.562;2024-01-30T00:35:00;102553.50;;;5.33;100.00
59513;BME280;45330;51.634;5.562;2024-01-30T00:37:25;102565.97;;;5.43;100.00
59513;BME280;45330;51.634;5.562;2024-01-30T00:39:51;102556.38;;;5.41;100.00
59513;BME280;45330;51.634;5.562;2024-01-30T00:42:16;102543.06;;;5.31;100.00
59513;BME280;45330;51.634;5.562;2024-01-30T00:44:41;102561.66;;;5.44;100.00
59513;BME280;45330;51.634;5.562;2024-01-30T00:47:07;102537.03;;;5.31;100.00
59513;BME280;45330;51.634;5.562;2024-01-30T00:49:32;102532.75;;;5.31;100.00
59513;BME280;45330;51.634;5.562;2024-01-30T00:51:58;102562.69;;;5.47;100.00
59513;BME280;45330;51.634;5.562;2024-01-30T00:54:23;102561.72;;;5.45;100.00
59513;BME280;45330;51.634;5.562;2024-01-30T00:56:48;102559.16;;;5.45;100.00
59513;BME280;45330;51.634;5.562;2024-01-30T00:59:14;102551.34;;;5.44;100.00
59513;BME280;45330;51.634;5.562;2024-01-30T01:01:39;102538.13;;;5.36;100.00
59513;BME280;45330;51.634;5.562;2024-01-30T01:04:05;102541.75;;;5.41;100.00
59513;BME280;45330;51.634;5.562;2024-01-30T01:06:30;102525.91;;;5.32;100.00
59513;BME280;45330;51.634;5.562;2024-01-30T01:08:56;102538.31;;;5.41;100.00
59513;BME280;45330;51.634;5.562;2024-01-30T01:11:21;102535.84;;;5.44;100.00
59513;BME280;45330;51.634;5.562;2024-01-30T01:13:47;102533.97;;;5.40;100.00
59513;BME280;45330;51.634;5.562;2024-01-30T01:16:13;102504.16;;;5.27;100.00
59513;BME280;45330;51.634;5.562;2024-01-30T01:18:38;102542.03;;;5.47;100.00
59513;BME280;45330;51.634;5.562;2024-01-30T01:21:04;102520.06;;;5.36;100.00
59513;BME280;45330;51.634;5.562;2024-01-30T01:23:30;102537.75;;;5.48;100.00
59513;BME280;45330;51.634;5.562;2024-01-30T01:25:55;102531.78;;;5.49;100.00
59513;BME280;45330;51.634;5.562;2024-01-30T01:28:20;102515.75;;;5.37;100.00
59513;BME280;45330;51.634;5.562;2024-01-30T01:30:46;102530.81;;;5.47;100.00
59513;BME280;45330;51.634;5.562;2024-01-30T01:33:11;102534.38;;;5.49;100.00
59513;BME280;45330;51.634;5.562;2024-01-30T01:35:39;102523.00;;;5.45;100.00
59513;BME280;45330;51.634;5.562;2024-01-30T01:38:05;102512.31;;;5.36;100.00
59513;BME280;45330;51.634;5.562;2024-01-30T01:40:30;102529.81;;;5.43;100.00
59513;BME280;45330;51.634;5.562;2024-01-30T01:42:56;102533.16;;;5.41;100.00
59513;BME280;45330;51.634;5.562;2024-01-30T01:45:22;102496.34;;;5.25;100.00
59513;BME280;45330;51.634;5.562;2024-01-30T01:47:50;102517.53;;;5.38;100.00
59513;BME280;45330;51.634;5.562;2024-01-30T01:50:16;102511.28;;;5.32;100.00
59513;BME280;45330;51.634;5.562;2024-01-30T01:52:49;102500.97;;;5.32;100.00
59513;BME280;45330;51.634;5.562;2024-01-30T01:55:16;102511.06;;;5.47;100.00
59513;BME280;45330;51.634;5.562;2024-01-30T01:57:43;102511.13;;;5.49;100.00
59513;BME280;45330;51.634;5.562;2024-01-30T02:00:10;102493.50;;;5.39;100.00
59513;BME280;45330;51.634;5.562;2024-01-30T02:02:36;102503.31;;;5.47;100.00
59513;BME280;45330;51.634;5.562;2024-01-30T02:05:02;102480.19;;;5.29;100.00
59513;BME280;45330;51.634;5.562;2024-01-30T02:07:28;102509.41;;;5.49;100.00
59513;BME280;45330;51.634;5.562;2024-01-30T02:09:54;102504.13;;;5.46;100.00
59513;BME280;45330;51.634;5.562;2024-01-30T02:12:20;102512.06;;;5.51;100.00
59513;BME280;45330;51.634;5.562;2024-01-30T02:14:46;102506.13;;;5.54;100.00
59513;BME280;45330;51.634;5.562;2024-01-30T02:17:12;102518.25;;;5.55;100.00
59513;BME280;45330;51.634;5.562;2024-01-30T02:19:39;102504.47;;;5.54;100.00
59513;BME280;45330;51.634;5.562;2024-01-30T02:22:04;102502.00;;;5.57;100.00
59513;BME280;45330;51.634;5.562;2024-01-30T02:24:29;102503.56;;;5.54;100.00
59513;BME280;45330;51.634;5.562;2024-01-30T02:26:55;102485.75;;;5.39;100.00
59513;BME280;45330;51.634;5.562;2024-01-30T02:29:20;102503.38;;;5.49;100.00
59513;BME280;45330;51.634;5.562;2024-01-30T02:31:46;102479.63;;;5.37;100.00
59513;BME280;45330;51.634;5.562;2024-01-30T02:34:12;102489.31;;;5.42;100.00
59513;BME280;45330;51.634;5.562;2024-01-30T02:36:37;102497.06;;;5.42;100.00
59513;BME280;45330;51.634;5.562;2024-01-30T02:39:03;102505.56;;;5.40;100.00
59513;BME280;45330;51.634;5.562;2024-01-30T02:41:28;102484.31;;;5.26;100.00
59513;BME280;45330;51.634;5.562;2024-01-30T02:43:53;102505.31;;;5.33;100.00
59513;BME280;45330;51.634;5.562;2024-01-30T02:46:19;102506.94;;;5.31;100.00
59513;BME280;45330;51.634;5.562;2024-01-30T02:48:44;102500.84;;;5.29;100.00
59513;BME280;45330;51.634;5.562;2024-01-30T02:51:09;102492.75;;;5.22;100.00
59513;BME280;45330;51.634;5.562;2024-01-30T02:53:35;102487.59;;;5.22;100.00
59513;BME280;45330;51.634;5.562;2024-01-30T02:56:02;102498.38;;;5.32;100.00
59513;BME280;45330;51.634;5.562;2024-01-30T02:58:28;102496.81;;;5.36;100.00
59513;BME280;45330;51.634;5.562;2024-01-30T03:00:53;102492.53;;;5.37;100.00
59513;BME280;45330;51.634;5.562;2024-01-30T03:03:18;102476.75;;;5.29;100.00
59513;BME280;45330;51.634;5.562;2024-01-30T03:05:44;102470.72;;;5.30;100.00
59513;BME280;45330;51.634;5.562;2024-01-30T03:08:09;102486.56;;;5.38;100.00
59513;BME280;45330;51.634;5.562;2024-01-30T03:10:35;102489.25;;;5.41;100.00
59513;BME280;45330;51.634;5.562;2024-01-30T03:13:00;102478.88;;;5.39;100.00
59513;BME280;45330;51.634;5.562;2024-01-30T03:15:26;102450.09;;;5.30;100.00
59513;BME280;45330;51.634;5.562;2024-01-30T03:17:51;102472.00;;;5.40;100.00
59513;BME280;45330;51.634;5.562;2024-01-30T03:20:17;102451.78;;;5.29;100.00
59513;BME280;45330;51.634;5.562;2024-01-30T03:22:42;102460.00;;;5.40;100.00
59513;BME280;45330;51.634;5.562;2024-01-30T03:25:07;102460.19;;;5.45;100.00
59513;BME280;45330;51.634;5.562;2024-01-30T03:27:33;102431.44;;;5.37;100.00
59513;BME280;45330;51.634;5.562;2024-01-30T03:29:58;102447.31;;;5.46;100.00
59513;BME280;45330;51.634;5.562;2024-01-30T03:32:23;102427.13;;;5.36;100.00
59513;BME280;45330;51.634;5.562;2024-01-30T03:34:49;102441.41;;;5.49;100.00
59513;BME280;45330;51.634;5.562;2024-01-30T03:37:14;102446.47;;;5.46;100.00
59513;BME280;45330;51.634;5.562;2024-01-30T03:39:40;102448.06;;;5.44;100.00
59513;BME280;45330;51.634;5.562;2024-01-30T03:42:05;102451.47;;;5.43;100.00
59513;BME280;45330;51.634;5.562;2024-01-30T03:44:30;102430.34;;;5.30;100.00
59513;BME280;45330;51.634;5.562;2024-01-30T03:46:56;102446.25;;;5.41;100.00
59513;BME280;45330;51.634;5.562;2024-01-30T03:49:21;102429.31;;;5.27;100.00
59513;BME280;45330;51.634;5.562;2024-01-30T03:51:46;102440.78;;;5.33;100.00
59513;BME280;45330;51.634;5.562;2024-01-30T03:54:12;102411.69;;;5.17;100.00
59513;BME280;45330;51.634;5.562;2024-01-30T03:56:38;102449.59;;;5.39;100.00
59513;BME280;45330;51.634;5.562;2024-01-30T03:59:03;102455.69;;;5.41;100.00
59513;BME280;45330;51.634;5.562;2024-01-30T04:01:29;102455.88;;;5.45;100.00
59513;BME280;45330;51.634;5.562;2024-01-30T04:03:54;102431.38;;;5.36;100.00
59513;BME280;45330;51.634;5.562;2024-01-30T04:06:19;102454.25;;;5.47;100.00
59513;BME280;45330;51.634;5.562;2024-01-30T04:08:45;102437.50;;;5.38;100.00
59513;BME280;45330;51.634;5.562;2024-01-30T04:11:10;102445.31;;;5.39;100.00
59513;BME280;45330;51.634;5.562;2024-01-30T04:13:36;102443.81;;;5.44;100.00
59513;BME280;45330;51.634;5.562;2024-01-30T04:16:01;102473.78;;;5.62;100.00
59513;BME280;45330;51.634;5.562;2024-01-30T04:18:28;102467.84;;;5.64;100.00
59513;BME280;45330;51.634;5.562;2024-01-30T04:20:53;102459.28;;;5.65;100.00
59513;BME280;45330;51.634;5.562;2024-01-30T04:23:19;102457.63;;;5.67;100.00
59513;BME280;45330;51.634;5.562;2024-01-30T04:25:44;102434.09;;;5.60;100.00
59513;BME280;45330;51.634;5.562;2024-01-30T04:28:10;102453.59;;;5.74;100.00
59513;BME280;45330;51.634;5.562;2024-01-30T04:30:37;102458.88;;;5.77;100.00
59513;BME280;45330;51.634;5.562;2024-01-30T04:33:03;102450.97;;;5.73;100.00
59513;BME280;45330;51.634;5.562;2024-01-30T04:35:28;102426.34;;;5.60;100.00
59513;BME280;45330;51.634;5.562;2024-01-30T04:37:54;102426.75;;;5.71;100.00
59513;BME280;45330;51.634;5.562;2024-01-30T04:40:20;102452.28;;;5.84;100.00
59513;BME280;45330;51.634;5.562;2024-01-30T04:42:46;102440.16;;;5.83;100.00
59513;BME280;45330;51.634;5.562;2024-01-30T04:45:12;102425.41;;;5.80;100.00
59513;BME280;45330;51.634;5.562;2024-01-30T04:47:37;102424.03;;;5.89;100.00
59513;BME280;45330;51.634;5.562;2024-01-30T04:50:05;102409.34;;;5.88;100.00
59513;BME280;45330;51.634;5.562;2024-01-30T04:52:31;102409.13;;;5.81;100.00
59513;BME280;45330;51.634;5.562;2024-01-30T04:54:57;102426.91;;;5.96;100.00
59513;BME280;45330;51.634;5.562;2024-01-30T04:57:22;102429.41;;;5.95;100.00
59513;BME280;45330;51.634;5.562;2024-01-30T04:59:47;102417.03;;;5.86;100.00
59513;BME280;45330;51.634;5.562;2024-01-30T05:02:13;102430.53;;;6.00;100.00
59513;BME280;45330;51.634;5.562;2024-01-30T05:04:38;102436.59;;;6.00;100.00
59513;BME280;45330;51.634;5.562;2024-01-30T05:07:05;102434.81;;;5.99;100.00
59513;BME280;45330;51.634;5.562;2024-01-30T05:09:31;102427.38;;;5.86;100.00
59513;BME280;45330;51.634;5.562;2024-01-30T05:11:56;102440.03;;;6.01;100.00
59513;BME280;45330;51.634;5.562;2024-01-30T05:14:21;102415.56;;;5.93;100.00
59513;BME280;45330;51.634;5.562;2024-01-30T05:16:47;102427.22;;;6.04;100.00
59513;BME280;45330;51.634;5.562;2024-01-30T05:19:15;102434.22;;;6.07;100.00
59513;BME280;45330;51.634;5.562;2024-01-30T05:21:41;102405.25;;;5.93;100.00
59513;BME280;45330;51.634;5.562;2024-01-30T05:24:07;102421.09;;;6.00;100.00
59513;BME280;45330;51.634;5.562;2024-01-30T05:26:34;102423.66;;;6.00;100.00
59513;BME280;45330;51.634;5.562;2024-01-30T05:29:00;102424.47;;;5.99;100.00
59513;BME280;45330;51.634;5.562;2024-01-30T05:31:25;102414.69;;;5.92;100.00
59513;BME280;45330;51.634;5.562;2024-01-30T05:33:52;102409.53;;;5.92;100.00
59513;BME280;45330;51.634;5.562;2024-01-30T05:36:17;102393.88;;;5.89;100.00
59513;BME280;45330;51.634;5.562;2024-01-30T05:38:43;102429.94;;;6.07;100.00
59513;BME280;45330;51.634;5.562;2024-01-30T05:41:09;102392.97;;;5.87;100.00
59513;BME280;45330;51.634;5.562;2024-01-30T05:43:34;102424.75;;;6.07;100.00
59513;BME280;45330;51.634;5.562;2024-01-30T05:46:00;102410.75;;;6.00;100.00
59513;BME280;45330;51.634;5.562;2024-01-30T05:48:25;102431.97;;;6.16;100.00
59513;BME280;45330;51.634;5.562;2024-01-30T05:50:51;102438.19;;;6.21;100.00
59513;BME280;45330;51.634;5.562;2024-01-30T05:53:16;102409.25;;;6.07;100.00
59513;BME280;45330;51.634;5.562;2024-01-30T05:55:42;102415.44;;;6.11;100.00
59513;BME280;45330;51.634;5.562;2024-01-30T05:58:07;102406.97;;;6.15;100.00
59513;BME280;45330;51.634;5.562;2024-01-30T06:00:32;102434.22;;;6.29;100.00
59513;BME280;45330;51.634;5.562;2024-01-30T06:02:58;102416.00;;;6.26;100.00
59513;BME280;45330;51.634;5.562;2024-01-30T06:05:23;102402.78;;;6.18;100.00
59513;BME280;45330;51.634;5.562;2024-01-30T06:07:48;102404.66;;;6.23;100.00
59513;BME280;45330;51.634;5.562;2024-01-30T06:10:14;102429.38;;;6.39;100.00
59513;BME280;45330;51.634;5.562;2024-01-30T06:12:39;102402.25;;;6.27;100.00
59513;BME280;45330;51.634;5.562;2024-01-30T06:15:05;102430.47;;;6.45;100.00
59513;BME280;45330;51.634;5.562;2024-01-30T06:17:32;102419.75;;;6.34;100.00
59513;BME280;45330;51.634;5.562;2024-01-30T06:19:57;102440.06;;;6.48;100.00
59513;BME280;45330;51.634;5.562;2024-01-30T06:22:23;102435.69;;;6.47;100.00
59513;BME280;45330;51.634;5.562;2024-01-30T06:24:48;102449.56;;;6.49;100.00
59513;BME280;45330;51.634;5.562;2024-01-30T06:27:14;102443.41;;;6.45;100.00
59513;BME280;45330;51.634;5.562;2024-01-30T06:29:40;102440.06;;;6.48;100.00
59513;BME280;45330;51.634;5.562;2024-01-30T06:32:07;102424.94;;;6.34;100.00
59513;BME280;45330;51.634;5.562;2024-01-30T06:34:33;102418.81;;;6.32;100.00
59513;BME280;45330;51.634;5.562;2024-01-30T06:36:58;102441.72;;;6.46;100.00
59513;BME280;45330;51.634;5.562;2024-01-30T06:39:24;102443.13;;;6.38;100.00
59513;BME280;45330;51.634;5.562;2024-01-30T06:41:50;102436.09;;;6.33;100.00
59513;BME280;45330;51.634;5.562;2024-01-30T06:44:15;102450.34;;;6.46;100.00
59513;BME280;45330;51.634;5.562;2024-01-30T06:46:41;102434.31;;;6.32;100.00
59513;BME280;45330;51.634;5.562;2024-01-30T06:49:06;102460.63;;;6.45;100.00
59513;BME280;45330;51.634;5.562;2024-01-30T06:51:32;102447.50;;;6.39;100.00
59513;BME280;45330;51.634;5.562;2024-01-30T06:53:57;102439.59;;;6.35;100.00
59513;BME280;45330;51.634;5.562;2024-01-30T06:56:22;102465.16;;;6.50;100.00
59513;BME280;45330;51.634;5.562;2024-01-30T06:58:49;102443.25;;;6.41;100.00
59513;BME280;45330;51.634;5.562;2024-01-30T07:01:14;102462.63;;;6.52;100.00
59513;BME280;45330;51.634;5.562;2024-01-30T07:03:40;102430.41;;;6.44;100.00
59513;BME280;45330;51.634;5.562;2024-01-30T07:06:05;102449.47;;;6.46;100.00
59513;BME280;45330;51.634;5.562;2024-01-30T07:08:31;102458.41;;;6.54;100.00
59513;BME280;45330;51.634;5.562;2024-01-30T07:10:56;102487.16;;;6.63;100.00
59513;BME280;45330;51.634;5.562;2024-01-30T07:13:22;102461.75;;;6.51;100.00
59513;BME280;45330;51.634;5.562;2024-01-30T07:15:47;102459.44;;;6.59;100.00
59513;BME280;45330;51.634;5.562;2024-01-30T07:18:13;102493.66;;;6.76;100.00
59513;BME280;45330;51.634;5.562;2024-01-30T07:20:39;102486.97;;;6.81;100.00
59513;BME280;45330;51.634;5.562;2024-01-30T07:23:12;102464.38;;;6.77;100.00
59513;BME280;45330;51.634;5.562;2024-01-30T07:25:42;102474.19;;;6.86;100.00
59513;BME280;45330;51.634;5.562;2024-01-30T07:28:08;102473.47;;;6.90;100.00
59513;BME280;45330;51.634;5.562;2024-01-30T07:30:37;102486.06;;;7.05;100.00
59513;BME280;45330;51.634;5.562;2024-01-30T07:33:03;102495.66;;;7.08;100.00
59513;BME280;45330;51.634;5.562;2024-01-30T07:35:28;102483.69;;;7.11;100.00
59513;BME280;45330;51.634;5.562;2024-01-30T07:37:54;102499.78;;;7.28;100.00
59513;BME280;45330;51.634;5.562;2024-01-30T07:40:19;102500.75;;;7.30;100.00
59513;BME280;45330;51.634;5.562;2024-01-30T07:42:44;102502.81;;;7.41;100.00
59513;BME280;45330;51.634;5.562;2024-01-30T07:45:10;102498.69;;;7.46;100.00
59513;BME280;45330;51.634;5.562;2024-01-30T07:47:35;102502.91;;;7.44;100.00
59513;BME280;45330;51.634;5.562;2024-01-30T07:50:01;102497.69;;;7.42;100.00
59513;BME280;45330;51.634;5.562;2024-01-30T07:52:26;102495.81;;;7.38;100.00
59513;BME280;45330;51.634;5.562;2024-01-30T07:54:51;102509.03;;;7.46;100.00
59513;BME280;45330;51.634;5.562;2024-01-30T07:57:17;102488.00;;;7.36;100.00
59513;BME280;45330;51.634;5.562;2024-01-30T07:59:44;102481.28;;;7.42;100.00
59513;BME280;45330;51.634;5.562;2024-01-30T08:02:10;102491.81;;;7.48;100.00
59513;BME280;45330;51.634;5.562;2024-01-30T08:04:35;102511.41;;;7.65;100.00
59513;BME280;45330;51.634;5.562;2024-01-30T08:07:01;102520.47;;;7.78;100.00
59513;BME280;45330;51.634;5.562;2024-01-30T08:09:26;102493.28;;;7.65;100.00
59513;BME280;45330;51.634;5.562;2024-01-30T08:11:52;102526.69;;;7.83;100.00
59513;BME280;45330;51.634;5.562;2024-01-30T08:14:18;102522.47;;;7.87;100.00
59513;BME280;45330;51.634;5.562;2024-01-30T08:16:43;102530.28;;;7.88;100.00
59513;BME280;45330;51.634;5.562;2024-01-30T08:19:08;102529.59;;;7.94;100.00
59513;BME280;45330;51.634;5.562;2024-01-30T08:21:34;102527.06;;;7.96;100.00
59513;BME280;45330;51.634;5.562;2024-01-30T08:24:04;102514.78;;;7.90;100.00
59513;BME280;45330;51.634;5.562;2024-01-30T08:26:30;102531.56;;;8.01;100.00
59513;BME280;45330;51.634;5.562;2024-01-30T08:28:56;102530.72;;;8.02;100.00
59513;BME280;45330;51.634;5.562;2024-01-30T08:31:21;102505.53;;;7.98;100.00
59513;BME280;45330;51.634;5.562;2024-01-30T08:33:46;102502.13;;;7.99;100.00
59513;BME280;45330;51.634;5.562;2024-01-30T08:36:12;102518.88;;;8.11;100.00
59513;BME280;45330;51.634;5.562;2024-01-30T08:38:37;102524.38;;;8.20;100.00
59513;BME280;45330;51.634;5.562;2024-01-30T08:41:03;102541.06;;;8.30;100.00
59513;BME280;45330;51.634;5.562;2024-01-30T08:43:28;102521.34;;;8.35;100.00
59513;BME280;45330;51.634;5.562;2024-01-30T08:45:53;102522.47;;;8.43;100.00
59513;BME280;45330;51.634;5.562;2024-01-30T08:48:19;102531.50;;;8.56;100.00
59513;BME280;45330;51.634;5.562;2024-01-30T08:50:44;102535.91;;;8.58;100.00
59513;BME280;45330;51.634;5.562;2024-01-30T08:53:10;102522.09;;;8.58;100.00
59513;BME280;45330;51.634;5.562;2024-01-30T08:55:35;102539.75;;;8.71;100.00
59513;BME280;45330;51.634;5.562;2024-01-30T08:58:00;102524.13;;;8.70;100.00
59513;BME280;45330;51.634;5.562;2024-01-30T09:00:26;102527.84;;;8.78;100.00
59513;BME280;45330;51.634;5.562;2024-01-30T09:02:51;102528.69;;;8.79;100.00
59513;BME280;45330;51.634;5.562;2024-01-30T09:05:16;102527.13;;;8.84;100.00
59513;BME280;45330;51.634;5.562;2024-01-30T09:07:42;102535.19;;;8.93;100.00
59513;BME280;45330;51.634;5.562;2024-01-30T09:10:07;102523.72;;;8.85;100.00
59513;BME280;45330;51.634;5.562;2024-01-30T09:12:33;102535.28;;;8.96;100.00
59513;BME280;45330;51.634;5.562;2024-01-30T09:14:58;102534.53;;;9.00;100.00
59513;BME280;45330;51.634;5.562;2024-01-30T09:17:25;102526.50;;;8.92;100.00
59513;BME280;45330;51.634;5.562;2024-01-30T09:19:50;102543.44;;;9.10;100.00
59513;BME280;45330;51.634;5.562;2024-01-30T09:22:15;102535.56;;;9.08;100.00
59513;BME280;45330;51.634;5.562;2024-01-30T09:24:41;102523.50;;;9.09;100.00
59513;BME280;45330;51.634;5.562;2024-01-30T09:27:06;102552.56;;;9.27;100.00
59513;BME280;45330;51.634;5.562;2024-01-30T09:29:32;102550.09;;;9.34;100.00
59513;BME280;45330;51.634;5.562;2024-01-30T09:31:59;102539.59;;;9.29;100.00
59513;BME280;45330;51.634;5.562;2024-01-30T09:34:25;102527.63;;;9.34;100.00
59513;BME280;45330;51.634;5.562;2024-01-30T09:36:50;102560.06;;;9.50;100.00
59513;BME280;45330;51.634;5.562;2024-01-30T09:39:15;102561.13;;;9.57;100.00
59513;BME280;45330;51.634;5.562;2024-01-30T09:41:49;102557.97;;;9.70;100.00
59513;BME280;45330;51.634;5.562;2024-01-30T09:44:19;102553.66;;;9.69;100.00
59513;BME280;45330;51.634;5.562;2024-01-30T09:46:47;102553.06;;;9.81;100.00
59513;BME280;45330;51.634;5.562;2024-01-30T09:49:13;102538.25;;;9.78;100.00
59513;BME280;45330;51.634;5.562;2024-01-30T09:51:39;102553.31;;;9.92;100.00
59513;BME280;45330;51.634;5.562;2024-01-30T09:54:07;102563.25;;;10.08;100.00
59513;BME280;45330;51.634;5.562;2024-01-30T09:56:33;102556.34;;;10.10;100.00
59513;BME280;45330;51.634;5.562;2024-01-30T09:58:59;102562.69;;;10.22;100.00
59513;BME280;45330;51.634;5.562;2024-01-30T10:01:25;102558.41;;;10.24;100.00
59513;BME280;45330;51.634;5.562;2024-01-30T10:03:51;102546.97;;;10.17;100.00
59513;BME280;45330;51.634;5.562;2024-01-30T10:06:18;102535.56;;;10.10;100.00
59513;BME280;45330;51.634;5.562;2024-01-30T10:08:43;102577.03;;;10.41;100.00
59513;BME280;45330;51.634;5.562;2024-01-30T10:11:09;102577.91;;;10.41;100.00
59513;BME280;45330;51.634;5.562;2024-01-30T10:13:35;102555.09;;;10.31;100.00
59513;BME280;45330;51.634;5.562;2024-01-30T10:16:00;102577.00;;;10.39;100.00
59513;BME280;45330;51.634;5.562;2024-01-30T10:18:28;102563.63;;;10.24;100.00
59513;BME280;45330;51.634;5.562;2024-01-30T10:20:54;102568.69;;;10.19;100.00
59513;BME280;45330;51.634;5.562;2024-01-30T10:23:19;102579.13;;;10.21;100.00
59513;BME280;45330;51.634;5.562;2024-01-30T10:25:45;102558.94;;;10.09;100.00
59513;BME280;45330;51.634;5.562;2024-01-30T10:28:11;102581.72;;;10.21;100.00
59513;BME280;45330;51.634;5.562;2024-01-30T10:30:36;102581.66;;;10.18;100.00
59513;BME280;45330;51.634;5.562;2024-01-30T10:33:02;102573.75;;;10.13;100.00
59513;BME280;45330;51.634;5.562;2024-01-30T10:35:27;102567.56;;;10.08;100.00
59513;BME280;45330;51.634;5.562;2024-01-30T10:37:56;102586.91;;;10.19;100.00
59513;BME280;45330;51.634;5.562;2024-01-30T10:40:27;102571.31;;;10.21;100.00
59513;BME280;45330;51.634;5.562;2024-01-30T10:42:54;102590.03;;;10.39;100.00
59513;BME280;45330;51.634;5.562;2024-01-30T10:45:22;102581.34;;;10.40;100.00
59513;BME280;45330;51.634;5.562;2024-01-30T10:47:53;102560.59;;;10.43;100.00
59513;BME280;45330;51.634;5.562;2024-01-30T10:50:20;102563.44;;;10.54;100.00
59513;BME280;45330;51.634;5.562;2024-01-30T10:52:46;102587.06;;;10.62;100.00
59513;BME280;45330;51.634;5.562;2024-01-30T10:55:12;102579.22;;;10.60;100.00
59513;BME280;45330;51.634;5.562;2024-01-30T10:57:39;102600.16;;;10.67;100.00
59513;BME280;45330;51.634;5.562;2024-01-30T11:00:10;102579.34;;;10.68;100.00
59513;BME280;45330;51.634;5.562;2024-01-30T11:02:42;102591.00;;;10.86;100.00
59513;BME280;45330;51.634;5.562;2024-01-30T11:05:08;102594.59;;;10.91;100.00
59513;BME280;45330;51.634;5.562;2024-01-30T11:07:34;102568.53;;;10.91;100.00
59513;BME280;45330;51.634;5.562;2024-01-30T11:10:03;102598.44;;;11.08;100.00
59513;BME280;45330;51.634;5.562;2024-01-30T11:12:31;102572.94;;;10.93;100.00
59513;BME280;45330;51.634;5.562;2024-01-30T11:15:16;102586.09;;;11.01;100.00
59513;BME280;45330;51.634;5.562;2024-01-30T11:20:20;102605.72;;;10.84;100.00
59513;BME280;45330;51.634;5.562;2024-01-30T11:22:47;102596.03;;;10.76;100.00
59513;BME280;45330;51.634;5.562;2024-01-30T11:25:17;102596.00;;;10.75;100.00
59513;BME280;45330;51.634;5.562;2024-01-30T11:27:43;102597.13;;;10.88;100.00
59513;BME280;45330;51.634;5.562;2024-01-30T11:30:09;102573.91;;;10.97;100.00
59513;BME280;45330;51.634;5.562;2024-01-30T11:32:36;102604.72;;;11.18;100.00
59513;BME280;45330;51.634;5.562;2024-01-30T11:35:05;102589.09;;;11.20;100.00
59513;BME280;45330;51.634;5.562;2024-01-30T11:37:31;102599.50;;;11.18;100.00
59513;BME280;45330;51.634;5.562;2024-01-30T11:39:58;102569.84;;;11.11;100.00
59513;BME280;45330;51.634;5.562;2024-01-30T11:42:23;102563.59;;;11.03;100.00
59513;BME280;45330;51.634;5.562;2024-01-30T11:44:52;102589.75;;;11.09;100.00
59513;BME280;45330;51.634;5.562;2024-01-30T11:47:17;102585.28;;;11.04;100.00
59513;BME280;45330;51.634;5.562;2024-01-30T11:49:43;102568.81;;;11.05;100.00
59513;BME280;45330;51.634;5.562;2024-01-30T11:52:09;102581.34;;;11.23;100.00
59513;BME280;45330;51.634;5.562;2024-01-30T11:54:35;102584.94;;;11.29;100.00
59513;BME280;45330;51.634;5.562;2024-01-30T11:57:00;102570.50;;;11.48;100.00
59513;BME280;45330;51.634;5.562;2024-01-30T11:59:26;102597.56;;;11.55;100.00
59513;BME280;45330;51.634;5.562;2024-01-30T12:01:54;102594.97;;;11.55;100.00
59513;BME280;45330;51.634;5.562;2024-01-30T12:04:19;102588.81;;;11.52;100.00
59513;BME280;45330;51.634;5.562;2024-01-30T12:06:45;102571.25;;;11.41;100.00
59513;BME280;45330;51.634;5.562;2024-01-30T12:09:10;102597.56;;;11.55;100.00
59513;BME280;45330;51.634;5.562;2024-01-30T12:11:48;102592.06;;;11.38;100.00
59513;BME280;45330;51.634;5.562;2024-01-30T12:14:16;102607.75;;;11.41;100.00
59513;BME280;45330;51.634;5.562;2024-01-30T12:16:42;102594.88;;;11.49;100.00
59513;BME280;45330;51.634;5.562;2024-01-30T12:19:07;102586.13;;;11.47;100.00
59513;BME280;45330;51.634;5.562;2024-01-30T12:21:33;102608.00;;;11.55;100.00
59513;BME280;45330;51.634;5.562;2024-01-30T12:23:59;102601.91;;;11.55;100.00
59513;BME280;45330;51.634;5.562;2024-01-30T12:26:25;102597.66;;;11.60;100.00
59513;BME280;45330;51.634;5.562;2024-01-30T12:28:54;102589.78;;;11.57;100.00
59513;BME280;45330;51.634;5.562;2024-01-30T12:31:25;102615.09;;;11.64;100.00
59513;BME280;45330;51.634;5.562;2024-01-30T12:33:52;102611.53;;;11.59;100.00
59513;BME280;45330;51.634;5.562;2024-01-30T12:36:17;102601.09;;;11.59;100.00
59513;BME280;45330;51.634;5.562;2024-01-30T12:38:43;102620.59;;;11.79;100.00
59513;BME280;45330;51.634;5.562;2024-01-30T12:41:08;102623.38;;;11.89;100.00
59513;BME280;45330;51.634;5.562;2024-01-30T12:43:34;102600.81;;;11.92;100.00